Time,TemperatureF,DewpointF,PressureIn,WindDirection,WindDirectionDegrees,WindSpeedMPH,WindSpeedGustMPH,Humidity,HourlyPrecipIn,Conditions,Clouds,dailyrainin,SoftwareType,DateUTC
2013-10-16 00:00:00,48.5,44.2,29.72,North,360,0.0,10.0,85,0.00,,OVC016,0.00,VWS V14.01,2013-10-16 05:00:00,
2013-10-16 00:01:00,48.5,44.5,29.72,North,360,0.0,10.0,86,0.00,,CLR,0.00,VWS V14.01,2013-10-16 05:01:00,
2013-10-16 00:05:00,48.4,44.1,29.72,North,360,0.0,5.0,85,0.00,,OVC016,0.00,VWS V14.01,2013-10-16 05:05:00,
2013-10-16 00:06:00,48.4,44.1,29.72,SSE,164,0.0,5.0,85,0.00,,CLR,0.00,VWS V14.01,2013-10-16 05:06:00,
2013-10-16 00:10:00,48.3,44.3,29.72,SSW,198,2.0,9.0,86,0.00,,OVC016,0.00,VWS V14.01,2013-10-16 05:10:00,
2013-10-16 00:11:00,48.3,44.3,29.72,North,360,2.0,9.0,86,0.00,,CLR,0.00,VWS V14.01,2013-10-16 05:11:00,
2013-10-16 00:15:00,48.3,44.3,29.72,North,360,3.0,8.0,86,0.00,,OVC016,0.00,VWS V14.01,2013-10-16 05:15:00,
2013-10-16 00:16:00,48.2,44.2,29.72,South,189,3.0,9.0,86,0.00,,CLR,0.00,VWS V14.01,2013-10-16 05:16:00,
2013-10-16 00:20:00,48.2,44.2,29.72,North,360,0.0,7.0,86,0.00,,OVC016,0.00,VWS V14.01,2013-10-16 05:20:00,
2013-10-16 00:21:00,48.1,44.1,29.72,South,169,0.0,5.0,86,0.00,,CLR,0.00,VWS V14.01,2013-10-16 05:21:00,
2013-10-16 00:25:00,48.0,44.0,29.72,SSW,201,0.0,9.0,86,0.00,,OVC016,0.00,VWS V14.01,2013-10-16 05:25:00,
2013-10-16 00:26:00,48.0,44.0,29.72,SW,218,0.0,9.0,86,0.00,,CLR,0.00,VWS V14.01,2013-10-16 05:26:00,
2013-10-16 00:30:00,47.9,43.9,29.72,North,360,0.0,4.0,86,0.00,,OVC016,0.00,VWS V14.01,2013-10-16 05:30:00,
2013-10-16 00:31:00,47.8,44.1,29.72,North,360,0.0,6.0,87,0.00,,CLR,0.00,VWS V14.01,2013-10-16 05:31:00,
2013-10-16 00:35:00,47.8,44.1,29.72,SW,236,0.0,6.0,87,0.00,,OVC016,0.00,VWS V14.01,2013-10-16 05:35:00,
2013-10-16 00:36:00,47.7,44.0,29.72,South,175,0.0,6.0,87,0.00,,CLR,0.00,VWS V14.01,2013-10-16 05:36:00,
2013-10-16 00:40:00,47.7,44.0,29.72,North,360,1.0,7.0,87,0.00,,OVC016,0.00,VWS V14.01,2013-10-16 05:40:00,
2013-10-16 00:41:00,47.6,43.9,29.72,North,360,5.0,9.0,87,0.00,,CLR,0.00,VWS V14.01,2013-10-16 05:41:00,
2013-10-16 00:45:00,47.6,43.9,29.72,North,360,4.0,10.0,87,0.00,,OVC016,0.00,VWS V14.01,2013-10-16 05:45:00,
2013-10-16 00:46:00,47.6,43.9,29.72,North,360,0.0,10.0,87,0.00,,CLR,0.00,VWS V14.01,2013-10-16 05:46:00,
2013-10-16 00:50:00,47.6,43.9,29.72,North,360,3.0,10.0,87,0.00,,OVC016,0.00,VWS V14.01,2013-10-16 05:50:00,
2013-10-16 00:51:00,47.7,44.0,29.72,SSW,208,1.0,10.0,87,0.00,,CLR,0.00,VWS V14.01,2013-10-16 05:51:00,
2013-10-16 00:55:00,47.7,44.0,29.72,South,176,0.0,5.0,87,0.00,,OVC016,0.00,VWS V14.01,2013-10-16 05:55:00,
2013-10-16 00:56:00,47.7,44.0,29.73,South,177,0.0,8.0,87,0.00,,CLR,0.00,VWS V14.01,2013-10-16 05:56:00,
2013-10-16 01:00:00,47.7,44.0,29.73,North,360,0.0,8.0,87,0.00,,OVC016,0.00,VWS V14.01,2013-10-16 06:00:00,
2013-10-16 01:01:00,47.8,44.1,29.72,South,181,0.0,5.0,87,0.00,,FEW040,0.00,VWS V14.01,2013-10-16 06:01:00,
2013-10-16 01:05:00,47.8,44.1,29.73,North,360,0.0,8.0,87,0.00,,OVC016,0.00,VWS V14.01,2013-10-16 06:05:00,
2013-10-16 01:07:00,47.8,44.1,29.73,SSE,162,4.0,8.0,87,0.00,,FEW040,0.00,VWS V14.01,2013-10-16 06:07:00,
2013-10-16 01:10:00,47.8,44.1,29.72,North,360,6.0,9.0,87,0.00,,OVC016,0.00,VWS V14.01,2013-10-16 06:10:00,
2013-10-16 01:12:00,47.8,44.1,29.72,North,360,2.0,10.0,87,0.00,,FEW040,0.00,VWS V14.01,2013-10-16 06:12:00,
2013-10-16 01:15:00,47.8,44.1,29.72,North,360,1.0,11.0,87,0.00,,OVC016,0.00,VWS V14.01,2013-10-16 06:15:00,
2013-10-16 01:17:00,47.9,44.2,29.72,North,360,0.0,11.0,87,0.00,,FEW040,0.00,VWS V14.01,2013-10-16 06:17:00,
2013-10-16 01:20:00,47.9,44.2,29.72,SSW,198,0.0,8.0,87,0.00,,OVC016,0.00,VWS V14.01,2013-10-16 06:20:00,
2013-10-16 01:22:00,47.9,44.2,29.72,South,171,0.0,9.0,87,0.00,,FEW040,0.00,VWS V14.01,2013-10-16 06:22:00,
2013-10-16 01:25:00,47.9,44.2,29.73,SW,223,0.0,11.0,87,0.00,,OVC016,0.00,VWS V14.01,2013-10-16 06:25:00,
2013-10-16 01:27:00,47.9,44.2,29.73,North,360,3.0,14.0,87,0.00,,FEW040,0.00,VWS V14.01,2013-10-16 06:27:00,
2013-10-16 01:30:00,48.0,44.3,29.73,North,360,6.0,14.0,87,0.00,,OVC016,0.00,VWS V14.01,2013-10-16 06:30:00,
2013-10-16 01:32:00,48.0,44.3,29.73,North,360,11.0,13.0,87,0.00,,FEW040,0.00,VWS V14.01,2013-10-16 06:32:00,
2013-10-16 01:35:00,48.0,44.3,29.73,North,360,9.0,12.0,87,0.00,,OVC016,0.00,VWS V14.01,2013-10-16 06:35:00,
2013-10-16 01:37:00,48.1,44.4,29.73,SSW,200,3.0,11.0,87,0.00,,FEW040,0.00,VWS V14.01,2013-10-16 06:37:00,
2013-10-16 01:40:00,48.1,44.4,29.73,SW,218,3.0,12.0,87,0.00,,OVC016,0.00,VWS V14.01,2013-10-16 06:40:00,
2013-10-16 01:42:00,48.1,44.4,29.73,WSW,249,8.0,13.0,87,0.00,,FEW040,0.00,VWS V14.01,2013-10-16 06:42:00,
2013-10-16 01:45:00,48.1,44.4,29.73,SW,217,11.0,13.0,87,0.00,,OVC016,0.00,VWS V14.01,2013-10-16 06:45:00,
2013-10-16 01:47:00,48.1,44.4,29.73,SW,220,6.0,11.0,87,0.00,,FEW040,0.00,VWS V14.01,2013-10-16 06:47:00,
2013-10-16 01:50:00,48.0,44.3,29.73,SW,214,2.0,12.0,87,0.00,,OVC016,0.00,VWS V14.01,2013-10-16 06:50:00,
2013-10-16 01:52:00,48.0,44.3,29.73,SW,216,3.0,10.0,87,0.00,,FEW040,0.00,VWS V14.01,2013-10-16 06:52:00,
2013-10-16 01:55:00,48.0,44.3,29.73,SW,229,9.0,11.0,87,0.00,,OVC016,0.00,VWS V14.01,2013-10-16 06:55:00,
2013-10-16 01:57:00,48.0,44.3,29.73,North,360,4.0,12.0,87,0.00,,FEW040,0.00,VWS V14.01,2013-10-16 06:57:00,
2013-10-16 02:00:00,48.0,44.3,29.73,SSW,211,7.0,12.0,87,0.00,,OVC016,0.00,VWS V14.01,2013-10-16 07:00:00,
2013-10-16 02:02:00,48.0,44.3,29.73,SSE,161,6.0,12.0,87,0.00,,FEW070,0.00,VWS V14.01,2013-10-16 07:02:00,
2013-10-16 02:05:00,48.0,44.3,29.73,North,360,6.0,11.0,87,0.00,,OVC016,0.00,VWS V14.01,2013-10-16 07:05:00,
2013-10-16 02:07:00,47.9,44.2,29.73,North,360,0.0,8.0,87,0.00,,FEW070,0.00,VWS V14.01,2013-10-16 07:07:00,
2013-10-16 02:10:00,47.9,44.2,29.73,North,360,5.0,9.0,87,0.00,,OVC016,0.00,VWS V14.01,2013-10-16 07:10:00,
2013-10-16 02:12:00,47.9,44.2,29.73,SW,227,8.0,11.0,87,0.00,,FEW070,0.00,VWS V14.01,2013-10-16 07:12:00,
2013-10-16 02:15:00,47.9,44.2,29.73,South,178,2.0,11.0,87,0.00,,OVC016,0.00,VWS V14.01,2013-10-16 07:15:00,
2013-10-16 02:17:00,47.9,44.2,29.73,North,360,7.0,11.0,87,0.00,,FEW070,0.00,VWS V14.01,2013-10-16 07:17:00,
2013-10-16 02:20:00,47.9,44.5,29.73,North,360,8.0,11.0,88,0.00,,OVC016,0.00,VWS V14.01,2013-10-16 07:20:00,
2013-10-16 02:22:00,47.8,44.4,29.73,North,360,3.0,11.0,88,0.00,,FEW070,0.00,VWS V14.01,2013-10-16 07:22:00,
2013-10-16 02:25:00,47.8,44.4,29.73,North,360,7.0,11.0,88,0.00,,OVC016,0.00,VWS V14.01,2013-10-16 07:25:00,
2013-10-16 02:27:00,47.8,44.4,29.73,SW,224,7.0,10.0,88,0.00,,FEW070,0.00,VWS V14.01,2013-10-16 07:27:00,
2013-10-16 02:30:00,47.8,44.4,29.72,South,188,0.0,10.0,88,0.00,,OVC016,0.00,VWS V14.01,2013-10-16 07:30:00,
2013-10-16 02:32:00,47.8,44.4,29.72,North,360,3.0,10.0,88,0.00,,FEW070,0.00,VWS V14.01,2013-10-16 07:32:00,
2013-10-16 02:35:00,47.8,44.4,29.72,North,360,6.0,12.0,88,0.00,,OVC016,0.00,VWS V14.01,2013-10-16 07:35:00,
2013-10-16 02:37:00,47.8,44.4,29.72,South,184,0.0,9.0,88,0.00,,FEW070,0.00,VWS V14.01,2013-10-16 07:37:00,
2013-10-16 02:40:00,47.8,44.4,29.72,South,190,3.0,7.0,88,0.00,,OVC016,0.00,VWS V14.01,2013-10-16 07:40:00,
2013-10-16 02:43:00,47.8,44.4,29.72,WSW,244,0.0,8.0,88,0.00,,FEW070,0.00,VWS V14.01,2013-10-16 07:43:00,
2013-10-16 02:45:00,47.8,44.4,29.72,North,360,2.0,9.0,88,0.00,,OVC016,0.00,VWS V14.01,2013-10-16 07:45:00,
2013-10-16 02:48:00,47.8,44.4,29.72,SW,231,8.0,8.0,88,0.00,,FEW070,0.00,VWS V14.01,2013-10-16 07:48:00,
2013-10-16 02:50:00,47.8,44.4,29.72,North,360,5.0,8.0,88,0.00,,OVC016,0.00,VWS V14.01,2013-10-16 07:50:00,
2013-10-16 02:53:00,47.8,44.4,29.72,North,360,3.0,6.0,88,0.00,,FEW070,0.00,VWS V14.01,2013-10-16 07:53:00,
2013-10-16 02:55:00,47.8,44.4,29.72,North,360,5.0,9.0,88,0.00,,OVC016,0.00,VWS V14.01,2013-10-16 07:55:00,
2013-10-16 02:58:00,47.8,44.4,29.72,North,360,2.0,12.0,88,0.00,,FEW070,0.00,VWS V14.01,2013-10-16 07:58:00,
2013-10-16 03:00:00,47.8,44.4,29.72,SW,219,0.0,12.0,88,0.00,,OVC016,0.00,VWS V14.01,2013-10-16 08:00:00,
2013-10-16 03:03:00,47.8,44.4,29.72,South,190,4.0,9.0,88,0.00,,SCT060,0.00,VWS V14.01,2013-10-16 08:03:00,
2013-10-16 03:05:00,47.8,44.4,29.72,WSW,242,5.0,7.0,88,0.00,,OVC016,0.00,VWS V14.01,2013-10-16 08:05:00,
2013-10-16 03:08:00,47.8,44.4,29.72,South,182,0.0,8.0,88,0.00,,SCT060,0.00,VWS V14.01,2013-10-16 08:08:00,
2013-10-16 03:10:00,47.8,44.4,29.72,SW,223,0.0,11.0,88,0.00,,OVC016,0.00,VWS V14.01,2013-10-16 08:10:00,
2013-10-16 03:13:00,47.8,44.4,29.72,North,360,4.0,9.0,88,0.00,,SCT060,0.00,VWS V14.01,2013-10-16 08:13:00,
2013-10-16 03:15:00,47.8,44.4,29.72,SW,217,0.0,9.0,88,0.00,,OVC016,0.00,VWS V14.01,2013-10-16 08:15:00,
2013-10-16 03:18:00,47.8,44.7,29.72,SSW,192,0.0,7.0,89,0.00,,SCT060,0.00,VWS V14.01,2013-10-16 08:18:00,
2013-10-16 03:20:00,47.8,44.7,29.72,North,360,2.0,8.0,89,0.00,,OVC016,0.00,VWS V14.01,2013-10-16 08:20:00,
2013-10-16 03:23:00,47.8,44.4,29.71,SSW,202,7.0,10.0,88,0.00,,SCT060,0.00,VWS V14.01,2013-10-16 08:23:00,
2013-10-16 03:25:00,47.8,44.4,29.72,SW,229,7.0,10.0,88,0.00,,OVC016,0.00,VWS V14.01,2013-10-16 08:25:00,
2013-10-16 03:28:00,47.9,44.8,29.71,North,360,1.0,10.0,89,0.00,,SCT060,0.00,VWS V14.01,2013-10-16 08:28:00,
2013-10-16 03:30:00,47.9,44.8,29.71,North,360,2.0,9.0,89,0.00,,OVC016,0.00,VWS V14.01,2013-10-16 08:30:00,
2013-10-16 03:33:00,47.9,44.8,29.71,North,360,1.0,7.0,89,0.00,,SCT060,0.00,VWS V14.01,2013-10-16 08:33:00,
2013-10-16 03:35:00,47.9,44.8,29.71,North,360,0.0,7.0,89,0.00,,OVC016,0.00,VWS V14.01,2013-10-16 08:35:00,
2013-10-16 03:38:00,47.9,44.8,29.71,SW,220,2.0,10.0,89,0.00,,SCT060,0.00,VWS V14.01,2013-10-16 08:38:00,
2013-10-16 03:40:00,47.9,44.8,29.71,North,360,2.0,7.0,89,0.00,,OVC016,0.00,VWS V14.01,2013-10-16 08:40:00,
2013-10-16 03:43:00,47.9,44.8,29.71,SW,221,0.0,5.0,89,0.00,,SCT060,0.00,VWS V14.01,2013-10-16 08:43:00,
2013-10-16 03:45:00,47.9,44.8,29.71,South,169,1.0,8.0,89,0.00,,OVC016,0.00,VWS V14.01,2013-10-16 08:45:00,
2013-10-16 03:48:00,47.9,44.8,29.71,SSW,201,5.0,12.0,89,0.00,,SCT060,0.00,VWS V14.01,2013-10-16 08:48:00,
2013-10-16 03:50:00,47.9,44.8,29.71,SSE,161,0.0,12.0,89,0.00,,OVC016,0.00,VWS V14.01,2013-10-16 08:50:00,
2013-10-16 03:53:00,48.0,44.9,29.71,SSW,197,0.0,9.0,89,0.00,,SCT060,0.00,VWS V14.01,2013-10-16 08:53:00,
2013-10-16 03:58:00,48.0,44.9,29.71,SSW,209,3.0,9.0,89,0.00,,SCT060,0.00,VWS V14.01,2013-10-16 08:58:00,
2013-10-16 04:03:00,48.1,45.0,29.71,SSE,163,2.0,11.0,89,0.00,,OVC065,0.00,VWS V14.01,2013-10-16 09:03:00,
2013-10-16 04:05:00,48.1,45.0,29.71,SW,225,7.0,11.0,89,0.00,,OVC016,0.00,VWS V14.01,2013-10-16 09:05:00,
2013-10-16 04:08:00,48.1,45.0,29.71,SW,229,5.0,9.0,89,0.00,,OVC065,0.00,VWS V14.01,2013-10-16 09:08:00,
2013-10-16 04:10:00,48.1,45.0,29.71,South,169,1.0,9.0,89,0.00,,OVC016,0.00,VWS V14.01,2013-10-16 09:10:00,
2013-10-16 04:13:00,48.1,45.0,29.71,SSW,211,4.0,6.0,89,0.00,,OVC065,0.00,VWS V14.01,2013-10-16 09:13:00,
2013-10-16 04:15:00,48.1,45.0,29.71,North,360,7.0,8.0,89,0.00,,OVC016,0.00,VWS V14.01,2013-10-16 09:15:00,
2013-10-16 04:18:00,48.1,45.0,29.71,SSW,192,0.0,8.0,89,0.00,,OVC065,0.00,VWS V14.01,2013-10-16 09:18:00,
2013-10-16 04:20:00,48.1,45.0,29.71,South,182,3.0,9.0,89,0.00,,OVC016,0.00,VWS V14.01,2013-10-16 09:20:00,
2013-10-16 04:23:00,48.2,45.1,29.71,North,360,3.0,6.0,89,0.00,,OVC065,0.00,VWS V14.01,2013-10-16 09:23:00,
2013-10-16 04:25:00,48.2,45.1,29.71,SSW,207,3.0,6.0,89,0.00,,OVC016,0.00,VWS V14.01,2013-10-16 09:25:00,
2013-10-16 04:29:00,48.2,45.1,29.71,SSW,208,3.0,8.0,89,0.00,,OVC065,0.00,VWS V14.01,2013-10-16 09:29:00,
2013-10-16 04:30:00,48.2,45.1,29.71,SSW,205,0.0,8.0,89,0.00,,OVC016,0.00,VWS V14.01,2013-10-16 09:30:00,
2013-10-16 04:34:00,48.3,45.2,29.71,SW,227,0.0,7.0,89,0.00,,OVC065,0.00,VWS V14.01,2013-10-16 09:34:00,
2013-10-16 04:35:00,48.3,45.2,29.71,SW,229,0.0,7.0,89,0.00,,OVC016,0.00,VWS V14.01,2013-10-16 09:35:00,
2013-10-16 04:39:00,48.3,45.2,29.71,SW,219,1.0,7.0,89,0.00,,OVC065,0.00,VWS V14.01,2013-10-16 09:39:00,
2013-10-16 04:40:00,48.3,45.2,29.71,SSW,207,0.0,7.0,89,0.00,,OVC016,0.00,VWS V14.01,2013-10-16 09:40:00,
2013-10-16 04:44:00,48.4,45.3,29.71,North,360,0.0,7.0,89,0.00,,OVC065,0.00,VWS V14.01,2013-10-16 09:44:00,
2013-10-16 04:45:00,48.4,45.3,29.71,SW,220,4.0,7.0,89,0.00,,OVC016,0.00,VWS V14.01,2013-10-16 09:45:00,
2013-10-16 04:49:00,48.5,45.4,29.71,North,360,0.0,4.0,89,0.00,,OVC065,0.00,VWS V14.01,2013-10-16 09:49:00,
2013-10-16 04:50:00,48.4,45.3,29.71,SW,225,4.0,8.0,89,0.00,,OVC016,0.00,VWS V14.01,2013-10-16 09:50:00,
2013-10-16 04:54:00,48.5,45.4,29.71,SW,219,0.0,10.0,89,0.00,,OVC065,0.00,VWS V14.01,2013-10-16 09:54:00,
2013-10-16 04:55:00,48.5,45.4,29.71,West,263,1.0,10.0,89,0.00,,OVC016,0.00,VWS V14.01,2013-10-16 09:55:00,
2013-10-16 04:59:00,48.5,45.4,29.71,SW,216,0.0,8.0,89,0.00,,OVC065,0.00,VWS V14.01,2013-10-16 09:59:00,
2013-10-16 05:00:00,48.6,45.5,29.71,North,360,7.0,8.0,89,0.00,,OVC016,0.00,VWS V14.01,2013-10-16 10:00:00,
2013-10-16 05:04:00,48.6,45.2,29.71,WSW,238,0.0,7.0,88,0.00,,OVC020,0.00,VWS V14.01,2013-10-16 10:04:00,
2013-10-16 05:05:00,48.6,45.5,29.71,SW,219,6.0,9.0,89,0.00,,OVC016,0.00,VWS V14.01,2013-10-16 10:05:00,
2013-10-16 05:09:00,48.7,45.6,29.71,SW,215,6.0,8.0,89,0.00,,OVC020,0.00,VWS V14.01,2013-10-16 10:09:00,
2013-10-16 05:10:00,48.7,45.6,29.71,SW,236,0.0,8.0,89,0.00,,OVC016,0.00,VWS V14.01,2013-10-16 10:10:00,
2013-10-16 05:14:00,48.7,45.6,29.71,SSW,207,2.0,11.0,89,0.00,,OVC020,0.00,VWS V14.01,2013-10-16 10:14:00,
2013-10-16 05:15:00,48.7,45.6,29.71,SSW,212,5.0,11.0,89,0.00,,OVC016,0.00,VWS V14.01,2013-10-16 10:15:00,
2013-10-16 05:19:00,48.7,45.6,29.71,SW,222,2.0,6.0,89,0.00,,OVC020,0.00,VWS V14.01,2013-10-16 10:19:00,
2013-10-16 05:20:00,48.7,45.6,29.71,North,360,9.0,10.0,89,0.00,,OVC016,0.00,VWS V14.01,2013-10-16 10:20:00,
2013-10-16 05:24:00,48.8,45.7,29.71,North,360,2.0,11.0,89,0.00,,OVC020,0.00,VWS V14.01,2013-10-16 10:24:00,
2013-10-16 05:25:00,48.8,45.7,29.71,SSW,198,3.0,11.0,89,0.00,,OVC016,0.00,VWS V14.01,2013-10-16 10:25:00,
2013-10-16 05:29:00,48.9,45.8,29.70,North,360,0.0,7.0,89,0.00,,OVC020,0.00,VWS V14.01,2013-10-16 10:29:00,
2013-10-16 05:30:00,48.9,45.8,29.70,South,182,0.0,7.0,89,0.00,,OVC016,0.00,VWS V14.01,2013-10-16 10:30:00,
2013-10-16 05:34:00,48.9,45.8,29.71,SSW,207,1.0,8.0,89,0.00,,OVC020,0.00,VWS V14.01,2013-10-16 10:34:00,
2013-10-16 05:35:00,48.9,45.8,29.71,North,360,4.0,8.0,89,0.00,,OVC016,0.00,VWS V14.01,2013-10-16 10:35:00,
2013-10-16 05:39:00,49.0,45.9,29.71,North,360,1.0,9.0,89,0.00,,OVC020,0.00,VWS V14.01,2013-10-16 10:39:00,
2013-10-16 05:40:00,49.0,45.9,29.71,North,360,1.0,9.0,89,0.00,,OVC016,0.00,VWS V14.01,2013-10-16 10:40:00,
2013-10-16 05:44:00,49.1,46.0,29.71,North,360,1.0,7.0,89,0.00,,OVC020,0.00,VWS V14.01,2013-10-16 10:44:00,
2013-10-16 05:45:00,49.1,46.0,29.71,North,360,1.0,7.0,89,0.00,,OVC016,0.00,VWS V14.01,2013-10-16 10:45:00,
2013-10-16 05:49:00,49.1,46.0,29.71,SW,226,4.0,8.0,89,0.00,,OVC020,0.00,VWS V14.01,2013-10-16 10:49:00,
2013-10-16 05:50:00,49.1,46.0,29.71,SW,226,4.0,8.0,89,0.00,,OVC016,0.00,VWS V14.01,2013-10-16 10:50:00,
2013-10-16 05:54:00,49.2,46.1,29.71,SW,235,5.0,11.0,89,0.00,,OVC020,0.00,VWS V14.01,2013-10-16 10:54:00,
2013-10-16 05:59:00,49.3,46.2,29.71,SSE,163,0.0,10.0,89,0.00,,OVC020,0.00,VWS V14.01,2013-10-16 10:59:00,
2013-10-16 06:00:00,49.3,46.2,29.71,SSE,163,0.0,10.0,89,0.00,,OVC016,0.00,VWS V14.01,2013-10-16 11:00:00,
2013-10-16 06:04:00,49.4,46.3,29.72,SSW,201,0.0,9.0,89,0.00,,OVC018,0.00,VWS V14.01,2013-10-16 11:04:00,
2013-10-16 06:05:00,49.4,46.3,29.72,North,360,3.0,9.0,89,0.00,,OVC016,0.00,VWS V14.01,2013-10-16 11:05:00,
2013-10-16 06:10:00,49.4,46.3,29.72,SW,223,0.0,9.0,89,0.00,,OVC018,0.00,VWS V14.01,2013-10-16 11:10:00,
2013-10-16 06:15:00,49.5,46.4,29.72,South,188,0.0,7.0,89,0.00,,OVC018,0.00,VWS V14.01,2013-10-16 11:15:00,
2013-10-16 06:20:00,49.5,46.4,29.72,North,360,0.0,10.0,89,0.00,,OVC018,0.00,VWS V14.01,2013-10-16 11:20:00,
2013-10-16 06:25:00,49.6,46.5,29.72,South,181,0.0,7.0,89,0.00,,OVC018,0.00,VWS V14.01,2013-10-16 11:25:00,
2013-10-16 06:30:00,49.6,46.5,29.72,SSW,206,4.0,12.0,89,0.00,,OVC018,0.00,VWS V14.01,2013-10-16 11:30:00,
2013-10-16 06:35:00,49.7,46.6,29.72,SW,219,5.0,6.0,89,0.00,,OVC018,0.00,VWS V14.01,2013-10-16 11:35:00,
2013-10-16 06:40:00,49.7,46.6,29.72,SW,234,3.0,7.0,89,0.00,,OVC018,0.00,VWS V14.01,2013-10-16 11:40:00,
2013-10-16 06:45:00,49.8,46.7,29.72,SW,235,2.0,12.0,89,0.00,,OVC018,0.00,VWS V14.01,2013-10-16 11:45:00,
2013-10-16 06:50:00,49.8,46.7,29.72,WSW,251,6.0,10.0,89,0.00,,OVC018,0.00,VWS V14.01,2013-10-16 11:50:00,
2013-10-16 06:55:00,49.8,46.7,29.72,North,360,3.0,10.0,89,0.00,,OVC018,0.00,VWS V14.01,2013-10-16 11:55:00,
2013-10-16 07:00:00,49.9,46.8,29.72,North,360,4.0,13.0,89,0.00,,OVC016,0.00,VWS V14.01,2013-10-16 12:00:00,
2013-10-16 07:05:00,50.0,46.9,29.72,WSW,240,0.0,8.0,89,0.00,,OVC016,0.00,VWS V14.01,2013-10-16 12:05:00,
2013-10-16 07:10:00,50.0,46.9,29.72,WSW,239,4.0,12.0,89,0.00,,OVC016,0.00,VWS V14.01,2013-10-16 12:10:00,
2013-10-16 07:15:00,50.0,46.9,29.72,North,360,3.0,10.0,89,0.00,,OVC016,0.00,VWS V14.01,2013-10-16 12:15:00,
2013-10-16 07:20:00,50.1,47.0,29.72,WSW,242,4.0,9.0,89,0.00,,OVC016,0.00,VWS V14.01,2013-10-16 12:20:00,
2013-10-16 07:25:00,50.1,47.0,29.72,SW,230,3.0,11.0,89,0.00,,OVC016,0.00,VWS V14.01,2013-10-16 12:25:00,
2013-10-16 07:30:00,50.2,47.1,29.72,WSW,244,4.0,12.0,89,0.00,,OVC016,0.00,VWS V14.01,2013-10-16 12:30:00,
2013-10-16 07:35:00,50.1,47.0,29.73,SW,222,4.0,11.0,89,0.00,,OVC016,0.00,VWS V14.01,2013-10-16 12:35:00,
2013-10-16 07:40:00,50.2,47.1,29.73,West,275,6.0,6.0,89,0.00,,OVC016,0.00,VWS V14.01,2013-10-16 12:40:00,
2013-10-16 07:45:00,50.2,47.1,29.73,SW,218,0.0,12.0,89,0.00,,OVC016,0.00,VWS V14.01,2013-10-16 12:45:00,
2013-10-16 07:50:00,50.2,47.1,29.73,North,360,4.0,8.0,89,0.00,,OVC016,0.00,VWS V14.01,2013-10-16 12:50:00,
2013-10-16 07:51:00,50.2,47.1,29.73,WSW,245,4.0,8.0,89,0.00,,OVC016,0.00,VWS V14.01,2013-10-16 12:51:00,
2013-10-16 07:55:00,50.3,47.2,29.73,WSW,242,3.0,12.0,89,0.00,,OVC016,0.00,VWS V14.01,2013-10-16 12:55:00,
2013-10-16 07:56:00,50.3,47.2,29.73,WSW,248,0.0,12.0,89,0.00,,OVC016,0.00,VWS V14.01,2013-10-16 12:56:00,
2013-10-16 08:00:00,50.3,47.2,29.73,West,269,6.0,15.0,89,0.00,,OVC016,0.00,VWS V14.01,2013-10-16 13:00:00,
2013-10-16 08:01:00,50.3,47.2,29.73,SW,231,4.0,14.0,89,0.00,,OVC014,0.00,VWS V14.01,2013-10-16 13:01:00,
2013-10-16 08:05:00,50.3,47.2,29.73,WSW,247,7.0,15.0,89,0.00,,OVC016,0.00,VWS V14.01,2013-10-16 13:05:00,
2013-10-16 08:06:00,50.2,47.4,29.73,SW,227,1.0,15.0,90,0.00,,OVC014,0.00,VWS V14.01,2013-10-16 13:06:00,
2013-10-16 08:10:00,50.3,47.5,29.73,SW,217,0.0,8.0,90,0.00,,OVC016,0.00,VWS V14.01,2013-10-16 13:10:00,
2013-10-16 08:11:00,50.3,47.5,29.73,West,263,0.0,10.0,90,0.00,,OVC014,0.00,VWS V14.01,2013-10-16 13:11:00,
2013-10-16 08:15:00,50.3,47.5,29.73,West,268,1.0,11.0,90,0.00,,OVC016,0.00,VWS V14.01,2013-10-16 13:15:00,
2013-10-16 08:16:00,50.3,47.5,29.74,SW,217,0.0,11.0,90,0.00,,OVC014,0.00,VWS V14.01,2013-10-16 13:16:00,
2013-10-16 08:20:00,50.3,47.5,29.73,WSW,244,0.0,5.0,90,0.00,,OVC016,0.00,VWS V14.01,2013-10-16 13:20:00,
2013-10-16 08:21:00,50.3,47.5,29.74,North,360,4.0,6.0,90,0.00,,OVC014,0.00,VWS V14.01,2013-10-16 13:21:00,
2013-10-16 08:25:00,50.3,47.5,29.74,SW,225,2.0,12.0,90,0.00,,OVC016,0.00,VWS V14.01,2013-10-16 13:25:00,
2013-10-16 08:26:00,50.3,47.5,29.74,SW,234,5.0,12.0,90,0.00,,OVC014,0.00,VWS V14.01,2013-10-16 13:26:00,
2013-10-16 08:30:00,50.3,47.5,29.74,SW,231,5.0,11.0,90,0.00,,OVC016,0.00,VWS V14.01,2013-10-16 13:30:00,
2013-10-16 08:31:00,50.3,47.5,29.74,WSW,249,2.0,11.0,90,0.00,,OVC014,0.00,VWS V14.01,2013-10-16 13:31:00,
2013-10-16 08:35:00,50.3,47.5,29.74,WSW,254,7.0,10.0,90,0.00,,OVC016,0.00,VWS V14.01,2013-10-16 13:35:00,
2013-10-16 08:36:00,50.3,47.8,29.74,WSW,242,1.0,10.0,91,0.00,,OVC014,0.00,VWS V14.01,2013-10-16 13:36:00,
2013-10-16 08:40:00,50.2,47.7,29.74,WNW,283,5.0,10.0,91,0.00,,OVC016,0.00,VWS V14.01,2013-10-16 13:40:00,
2013-10-16 08:41:00,50.2,47.7,29.74,North,360,0.0,10.0,91,0.00,,OVC014,0.00,VWS V14.01,2013-10-16 13:41:00,
2013-10-16 08:45:00,50.2,47.7,29.74,North,360,0.0,5.0,91,0.00,,OVC016,0.00,VWS V14.01,2013-10-16 13:45:00,
2013-10-16 08:46:00,50.2,48.0,29.74,SW,221,0.0,10.0,92,0.00,,OVC014,0.00,VWS V14.01,2013-10-16 13:46:00,
2013-10-16 08:50:00,50.2,48.0,29.74,North,360,3.0,10.0,92,0.00,,OVC016,0.00,VWS V14.01,2013-10-16 13:50:00,
2013-10-16 08:51:00,50.1,47.9,29.74,North,360,0.0,10.0,92,0.00,,OVC014,0.00,VWS V14.01,2013-10-16 13:51:00,
2013-10-16 08:55:00,50.1,47.9,29.74,SW,221,6.0,10.0,92,0.00,,OVC016,0.00,VWS V14.01,2013-10-16 13:55:00,
2013-10-16 08:56:00,50.2,48.0,29.74,North,360,1.0,10.0,92,0.00,,OVC014,0.00,VWS V14.01,2013-10-16 13:56:00,
2013-10-16 09:00:00,50.3,48.1,29.74,SSW,209,0.0,10.0,92,0.00,,OVC016,0.00,VWS V14.01,2013-10-16 14:00:00,
2013-10-16 09:01:00,50.3,48.1,29.74,SW,235,1.0,10.0,92,0.00,,OVC012,0.00,VWS V14.01,2013-10-16 14:01:00,
2013-10-16 09:05:00,50.3,48.1,29.74,West,262,1.0,13.0,92,0.00,,OVC016,0.00,VWS V14.01,2013-10-16 14:05:00,
2013-10-16 09:06:00,50.4,48.2,29.74,WSW,241,6.0,10.0,92,0.00,,OVC012,0.00,VWS V14.01,2013-10-16 14:06:00,
2013-10-16 09:10:00,50.4,48.2,29.74,SW,221,2.0,11.0,92,0.00,,OVC016,0.00,VWS V14.01,2013-10-16 14:10:00,
2013-10-16 09:11:00,50.4,48.2,29.74,North,360,0.0,11.0,92,0.00,,OVC012,0.00,VWS V14.01,2013-10-16 14:11:00,
2013-10-16 09:15:00,50.5,48.3,29.74,SW,229,6.0,10.0,92,0.00,,OVC016,0.00,VWS V14.01,2013-10-16 14:15:00,
2013-10-16 09:16:00,50.5,48.3,29.74,WSW,243,0.0,6.0,92,0.00,,OVC012,0.00,VWS V14.01,2013-10-16 14:16:00,
2013-10-16 09:20:00,50.6,48.1,29.74,North,360,6.0,13.0,91,0.00,,OVC016,0.00,VWS V14.01,2013-10-16 14:20:00,
2013-10-16 09:21:00,50.6,48.1,29.74,SW,232,5.0,13.0,91,0.00,,OVC012,0.00,VWS V14.01,2013-10-16 14:21:00,
2013-10-16 09:25:00,50.6,48.1,29.74,North,360,11.0,15.0,91,0.00,,OVC016,0.00,VWS V14.01,2013-10-16 14:25:00,
2013-10-16 09:27:00,50.6,48.1,29.74,WSW,242,0.0,15.0,91,0.00,,OVC012,0.00,VWS V14.01,2013-10-16 14:27:00,
2013-10-16 09:30:00,50.7,48.2,29.75,North,360,8.0,13.0,91,0.00,,OVC016,0.00,VWS V14.01,2013-10-16 14:30:00,
2013-10-16 09:32:00,50.8,48.3,29.74,WNW,292,11.0,14.0,91,0.00,,OVC012,0.00,VWS V14.01,2013-10-16 14:32:00,
2013-10-16 09:35:00,50.8,48.3,29.75,WSW,253,9.0,14.0,91,0.00,,OVC016,0.00,VWS V14.01,2013-10-16 14:35:00,
2013-10-16 09:37:00,50.9,48.4,29.74,South,190,0.0,12.0,91,0.00,,OVC012,0.00,VWS V14.01,2013-10-16 14:37:00,
2013-10-16 09:40:00,50.9,48.1,29.75,SW,215,1.0,13.0,90,0.00,,OVC016,0.00,VWS V14.01,2013-10-16 14:40:00,
2013-10-16 09:42:00,50.9,48.1,29.74,SW,221,0.0,14.0,90,0.00,,OVC012,0.00,VWS V14.01,2013-10-16 14:42:00,
2013-10-16 09:45:00,51.0,48.5,29.75,WNW,302,0.0,14.0,91,0.00,,OVC016,0.00,VWS V14.01,2013-10-16 14:45:00,
2013-10-16 09:47:00,51.1,48.6,29.75,West,267,8.0,11.0,91,0.00,,OVC012,0.00,VWS V14.01,2013-10-16 14:47:00,
2013-10-16 09:50:00,51.1,48.3,29.75,SW,218,0.0,13.0,90,0.00,,OVC016,0.00,VWS V14.01,2013-10-16 14:50:00,
2013-10-16 09:52:00,51.3,48.8,29.75,West,265,4.0,13.0,91,0.00,,OVC012,0.00,VWS V14.01,2013-10-16 14:52:00,
2013-10-16 09:55:00,51.3,48.5,29.75,WSW,245,6.0,11.0,90,0.00,,OVC016,0.00,VWS V14.01,2013-10-16 14:55:00,
2013-10-16 09:57:00,51.4,48.6,29.75,WSW,251,6.0,8.0,90,0.00,,OVC012,0.00,VWS V14.01,2013-10-16 14:57:00,
2013-10-16 10:00:00,51.5,48.7,29.75,WSW,258,5.0,8.0,90,0.00,,OVC016,0.00,VWS V14.01,2013-10-16 15:00:00,
2013-10-16 10:02:00,51.5,48.7,29.75,West,261,9.0,12.0,90,0.00,,OVC010,0.00,VWS V14.01,2013-10-16 15:02:00,
2013-10-16 10:05:00,51.5,48.7,29.75,SW,225,2.0,12.0,90,0.00,,OVC016,0.00,VWS V14.01,2013-10-16 15:05:00,
2013-10-16 10:07:00,51.5,48.7,29.75,SW,235,0.0,11.0,90,0.00,,OVC010,0.00,VWS V14.01,2013-10-16 15:07:00,
2013-10-16 10:10:00,51.4,48.6,29.75,WSW,256,0.0,11.0,90,0.00,,OVC016,0.00,VWS V14.01,2013-10-16 15:10:00,
2013-10-16 10:12:00,51.5,48.7,29.76,West,277,2.0,11.0,90,0.00,,OVC010,0.00,VWS V14.01,2013-10-16 15:12:00,
2013-10-16 10:15:00,51.5,48.7,29.76,SW,232,0.0,11.0,90,0.00,,OVC016,0.00,VWS V14.01,2013-10-16 15:15:00,
2013-10-16 10:17:00,51.6,48.8,29.76,WSW,238,4.0,9.0,90,0.00,,OVC010,0.00,VWS V14.01,2013-10-16 15:17:00,
2013-10-16 10:20:00,51.7,48.9,29.76,SW,227,4.0,9.0,90,0.00,,OVC016,0.00,VWS V14.01,2013-10-16 15:20:00,
2013-10-16 10:22:00,51.7,48.9,29.76,SW,229,0.0,9.0,90,0.00,,OVC010,0.00,VWS V14.01,2013-10-16 15:22:00,
2013-10-16 10:25:00,51.7,48.9,29.76,WSW,248,0.0,9.0,90,0.00,,OVC016,0.00,VWS V14.01,2013-10-16 15:25:00,
2013-10-16 10:27:00,51.8,49.0,29.76,West,271,1.0,6.0,90,0.00,,OVC010,0.00,VWS V14.01,2013-10-16 15:27:00,
2013-10-16 10:30:00,51.8,49.0,29.76,WSW,242,7.0,10.0,90,0.00,,OVC016,0.00,VWS V14.01,2013-10-16 15:30:00,
2013-10-16 10:32:00,51.7,48.9,29.76,WSW,242,1.0,11.0,90,0.00,,OVC010,0.00,VWS V14.01,2013-10-16 15:32:00,
2013-10-16 10:35:00,51.7,48.9,29.76,SW,226,0.0,11.0,90,0.00,,OVC016,0.00,VWS V14.01,2013-10-16 15:35:00,
2013-10-16 10:37:00,51.8,49.3,29.77,SW,225,0.0,4.0,91,0.00,,OVC010,0.00,VWS V14.01,2013-10-16 15:37:00,
2013-10-16 10:40:00,51.8,49.3,29.77,SW,232,1.0,4.0,91,0.00,,OVC016,0.00,VWS V14.01,2013-10-16 15:40:00,
2013-10-16 10:42:00,51.8,49.3,29.77,SW,232,0.0,6.0,91,0.00,,OVC010,0.00,VWS V14.01,2013-10-16 15:42:00,
2013-10-16 10:45:00,51.8,49.3,29.77,North,360,0.0,11.0,91,0.00,,OVC016,0.00,VWS V14.01,2013-10-16 15:45:00,
2013-10-16 10:47:00,51.7,49.5,29.77,SW,229,0.0,11.0,92,0.00,,OVC010,0.00,VWS V14.01,2013-10-16 15:47:00,
2013-10-16 10:50:00,51.7,49.5,29.77,SW,235,0.0,6.0,92,0.00,,OVC016,0.00,VWS V14.01,2013-10-16 15:50:00,
2013-10-16 10:52:00,51.8,49.5,29.77,SSW,199,5.0,5.0,92,0.00,,OVC010,0.00,VWS V14.01,2013-10-16 15:52:00,
2013-10-16 10:55:00,51.7,49.5,29.77,SW,215,0.0,7.0,92,0.00,,OVC016,0.00,VWS V14.01,2013-10-16 15:55:00,
2013-10-16 10:58:00,51.7,49.5,29.77,North,360,2.0,10.0,92,0.00,,OVC010,0.00,VWS V14.01,2013-10-16 15:58:00,
2013-10-16 11:00:00,51.6,49.4,29.77,SSW,207,0.0,11.0,92,0.00,,OVC016,0.00,VWS V14.01,2013-10-16 16:00:00,
2013-10-16 11:03:00,51.5,49.5,29.77,West,261,0.0,11.0,93,0.00,,,0.00,VWS V14.01,2013-10-16 16:03:00,
2013-10-16 11:05:00,51.6,49.7,29.77,WSW,242,3.0,8.0,93,0.00,,OVC016,0.00,VWS V14.01,2013-10-16 16:05:00,
2013-10-16 11:08:00,51.7,49.8,29.77,North,360,2.0,10.0,93,0.00,,,0.00,VWS V14.01,2013-10-16 16:08:00,
2013-10-16 11:10:00,51.6,49.7,29.77,SSW,209,4.0,10.0,93,0.00,,OVC016,0.00,VWS V14.01,2013-10-16 16:10:00,
2013-10-16 11:13:00,51.7,49.8,29.76,SW,236,3.0,8.0,93,0.00,,,0.00,VWS V14.01,2013-10-16 16:13:00,
2013-10-16 11:15:00,51.7,50.0,29.76,SW,228,0.0,8.0,94,0.00,,OVC016,0.00,VWS V14.01,2013-10-16 16:15:00,
2013-10-16 11:18:00,51.8,50.1,29.76,SW,225,6.0,9.0,94,0.00,,,0.00,VWS V14.01,2013-10-16 16:18:00,
2013-10-16 11:20:00,51.8,49.8,29.76,North,360,0.0,9.0,93,0.00,,OVC016,0.00,VWS V14.01,2013-10-16 16:20:00,
2013-10-16 11:23:00,51.8,50.1,29.76,North,360,8.0,10.0,94,0.00,,,0.00,VWS V14.01,2013-10-16 16:23:00,
2013-10-16 11:25:00,51.8,50.1,29.76,SW,225,8.0,10.0,94,0.00,,OVC016,0.00,VWS V14.01,2013-10-16 16:25:00,
2013-10-16 11:28:00,51.9,50.2,29.77,North,360,0.0,10.0,94,0.00,,,0.00,VWS V14.01,2013-10-16 16:28:00,
2013-10-16 11:30:00,51.9,50.2,29.77,SW,223,2.0,10.0,94,0.00,,OVC016,0.00,VWS V14.01,2013-10-16 16:30:00,
2013-10-16 11:33:00,52.0,50.3,29.77,SW,236,0.0,9.0,94,0.00,,,0.00,VWS V14.01,2013-10-16 16:33:00,
2013-10-16 11:35:00,52.1,50.4,29.77,WSW,246,0.0,9.0,94,0.00,,OVC016,0.00,VWS V14.01,2013-10-16 16:35:00,
2013-10-16 11:38:00,52.1,50.4,29.77,North,360,5.0,8.0,94,0.00,,,0.00,VWS V14.01,2013-10-16 16:38:00,
2013-10-16 11:40:00,52.1,50.4,29.77,SW,214,1.0,8.0,94,0.00,,OVC016,0.00,VWS V14.01,2013-10-16 16:40:00,
2013-10-16 11:43:00,52.2,50.5,29.77,SW,227,0.0,5.0,94,0.00,,,0.00,VWS V14.01,2013-10-16 16:43:00,
2013-10-16 11:48:00,52.2,50.2,29.77,SW,224,0.0,8.0,93,0.00,,,0.00,VWS V14.01,2013-10-16 16:48:00,
2013-10-16 11:50:00,52.2,50.2,29.77,SW,232,0.0,8.0,93,0.00,,OVC016,0.00,VWS V14.01,2013-10-16 16:50:00,
2013-10-16 11:53:00,52.3,50.3,29.77,North,360,3.0,8.0,93,0.00,,,0.00,VWS V14.01,2013-10-16 16:53:00,
2013-10-16 11:55:00,52.3,50.3,29.77,SW,230,0.0,8.0,93,0.00,,OVC016,0.00,VWS V14.01,2013-10-16 16:55:00,
2013-10-16 11:58:00,52.3,50.3,29.77,North,360,5.0,8.0,93,0.00,,,0.00,VWS V14.01,2013-10-16 16:58:00,
2013-10-16 12:00:00,52.3,50.3,29.77,South,182,0.0,8.0,93,0.00,,OVC016,0.00,VWS V14.01,2013-10-16 17:00:00,
2013-10-16 12:03:00,52.4,50.4,29.77,SW,236,0.0,3.0,93,0.00,,OVC020,0.00,VWS V14.01,2013-10-16 17:03:00,
2013-10-16 12:05:00,52.5,50.5,29.77,North,360,0.0,3.0,93,0.00,,OVC016,0.00,VWS V14.01,2013-10-16 17:05:00,
2013-10-16 12:09:00,52.4,50.4,29.77,North,360,1.0,11.0,93,0.00,,OVC020,0.00,VWS V14.01,2013-10-16 17:09:00,
2013-10-16 12:10:00,52.4,50.4,29.77,North,360,3.0,11.0,93,0.00,,OVC016,0.00,VWS V14.01,2013-10-16 17:10:00,
2013-10-16 12:14:00,52.4,50.4,29.77,SW,222,7.0,9.0,93,0.00,,OVC020,0.00,VWS V14.01,2013-10-16 17:14:00,
2013-10-16 12:15:00,52.4,50.4,29.77,North,360,6.0,9.0,93,0.00,,OVC016,0.00,VWS V14.01,2013-10-16 17:15:00,
2013-10-16 12:19:00,52.4,50.4,29.77,SSW,212,6.0,10.0,93,0.00,,OVC020,0.00,VWS V14.01,2013-10-16 17:19:00,
2013-10-16 12:20:00,52.4,50.4,29.77,North,360,6.0,10.0,93,0.00,,OVC016,0.00,VWS V14.01,2013-10-16 17:20:00,
2013-10-16 12:24:00,52.4,50.4,29.77,SW,222,3.0,9.0,93,0.00,,OVC020,0.00,VWS V14.01,2013-10-16 17:24:00,
2013-10-16 12:25:00,52.4,50.2,29.77,North,360,8.0,9.0,92,0.00,,OVC016,0.00,VWS V14.01,2013-10-16 17:25:00,
2013-10-16 12:29:00,52.5,50.5,29.77,WSW,239,0.0,10.0,93,0.00,,OVC020,0.00,VWS V14.01,2013-10-16 17:29:00,
2013-10-16 12:30:00,52.5,50.2,29.77,SW,221,6.0,10.0,92,0.00,,OVC016,0.00,VWS V14.01,2013-10-16 17:30:00,
2013-10-16 12:34:00,52.6,50.6,29.77,WSW,250,0.0,9.0,93,0.00,,OVC020,0.00,VWS V14.01,2013-10-16 17:34:00,
2013-10-16 12:35:00,52.6,50.6,29.77,WSW,238,0.0,9.0,93,0.00,,OVC016,0.00,VWS V14.01,2013-10-16 17:35:00,
2013-10-16 12:39:00,52.7,50.5,29.77,SW,221,3.0,9.0,92,0.00,,OVC020,0.00,VWS V14.01,2013-10-16 17:39:00,
2013-10-16 12:40:00,52.6,50.3,29.77,SSW,204,7.0,9.0,92,0.00,,OVC016,0.00,VWS V14.01,2013-10-16 17:40:00,
2013-10-16 12:44:00,52.7,50.5,29.77,SSW,207,1.0,9.0,92,0.00,,OVC020,0.00,VWS V14.01,2013-10-16 17:44:00,
2013-10-16 12:45:00,52.7,50.5,29.77,SW,234,0.0,9.0,92,0.00,,OVC016,0.00,VWS V14.01,2013-10-16 17:45:00,
2013-10-16 12:49:00,52.9,50.6,29.77,WSW,250,2.0,11.0,92,0.00,,OVC020,0.00,VWS V14.01,2013-10-16 17:49:00,
2013-10-16 12:50:00,52.8,50.5,29.77,North,360,2.0,11.0,92,0.00,,OVC016,0.00,VWS V14.01,2013-10-16 17:50:00,
2013-10-16 12:54:00,53.1,50.5,29.77,North,360,0.0,11.0,91,0.00,,OVC020,0.00,VWS V14.01,2013-10-16 17:54:00,
2013-10-16 12:55:00,53.1,50.5,29.77,SW,234,3.0,11.0,91,0.00,,OVC016,0.00,VWS V14.01,2013-10-16 17:55:00,
2013-10-16 12:59:00,53.2,50.7,29.77,SW,223,6.0,9.0,91,0.00,,OVC020,0.00,VWS V14.01,2013-10-16 17:59:00,
2013-10-16 13:00:00,53.2,50.7,29.77,WSW,242,3.0,9.0,91,0.00,,OVC016,0.00,VWS V14.01,2013-10-16 18:00:00,
2013-10-16 13:04:00,53.3,50.5,29.77,West,278,6.0,12.0,90,0.00,,OVC023,0.00,VWS V14.01,2013-10-16 18:04:00,
2013-10-16 13:05:00,53.3,50.5,29.77,West,278,6.0,12.0,90,0.00,,OVC016,0.00,VWS V14.01,2013-10-16 18:05:00,
2013-10-16 13:09:00,53.3,50.5,29.77,North,360,1.0,12.0,90,0.00,,OVC023,0.00,VWS V14.01,2013-10-16 18:09:00,
2013-10-16 13:10:00,53.3,50.5,29.77,North,360,1.0,12.0,90,0.00,,OVC016,0.00,VWS V14.01,2013-10-16 18:10:00,
2013-10-16 13:14:00,53.5,50.6,29.77,WSW,249,0.0,10.0,90,0.00,,OVC023,0.00,VWS V14.01,2013-10-16 18:14:00,
2013-10-16 13:15:00,53.5,50.7,29.77,WSW,249,0.0,10.0,90,0.00,,OVC016,0.00,VWS V14.01,2013-10-16 18:15:00,
2013-10-16 13:19:00,53.7,50.8,29.77,WSW,252,0.0,8.0,90,0.00,,OVC023,0.00,VWS V14.01,2013-10-16 18:19:00,
2013-10-16 13:20:00,53.7,50.8,29.77,WSW,252,0.0,8.0,90,0.00,,OVC016,0.00,VWS V14.01,2013-10-16 18:20:00,
2013-10-16 13:25:00,54.0,50.8,29.77,SSW,199,0.0,9.0,89,0.00,,OVC023,0.00,VWS V14.01,2013-10-16 18:25:00,
2013-10-16 13:30:00,54.3,50.8,29.77,SW,219,5.0,11.0,88,0.00,,OVC023,0.00,VWS V14.01,2013-10-16 18:30:00,
2013-10-16 13:33:00,54.4,50.9,29.76,SW,223,0.0,11.0,88,0.00,,OVC023,0.00,VWS V14.01,2013-10-16 18:33:00,
2013-10-16 13:35:00,54.5,51.0,29.76,SSW,200,0.0,11.0,88,0.00,,OVC016,0.00,VWS V14.01,2013-10-16 18:35:00,
2013-10-16 13:38:00,54.6,50.8,29.77,WSW,246,0.0,10.0,87,0.00,,OVC023,0.00,VWS V14.01,2013-10-16 18:38:00,
2013-10-16 13:40:00,54.6,50.8,29.77,SW,224,8.0,10.0,87,0.00,,OVC016,0.00,VWS V14.01,2013-10-16 18:40:00,
2013-10-16 13:43:00,54.6,50.8,29.76,North,360,8.0,12.0,87,0.00,,OVC023,0.00,VWS V14.01,2013-10-16 18:43:00,
2013-10-16 13:45:00,54.6,50.5,29.76,West,261,3.0,12.0,86,0.00,,OVC016,0.00,VWS V14.01,2013-10-16 18:45:00,
2013-10-16 13:48:00,54.6,50.8,29.76,SW,225,7.0,12.0,87,0.00,,OVC023,0.00,VWS V14.01,2013-10-16 18:48:00,
2013-10-16 13:50:00,54.6,50.8,29.76,SSW,202,1.0,7.0,87,0.00,,OVC016,0.00,VWS V14.01,2013-10-16 18:50:00,
2013-10-16 13:53:00,54.7,50.9,29.77,WSW,246,0.0,7.0,87,0.00,,OVC023,0.00,VWS V14.01,2013-10-16 18:53:00,
2013-10-16 13:55:00,54.7,50.9,29.76,SW,227,1.0,7.0,87,0.00,,OVC016,0.00,VWS V14.01,2013-10-16 18:55:00,
2013-10-16 13:58:00,54.5,50.4,29.76,North,360,6.0,13.0,86,0.00,,OVC023,0.00,VWS V14.01,2013-10-16 18:58:00,
2013-10-16 14:00:00,54.5,50.4,29.76,WSW,246,7.0,13.0,86,0.00,,OVC016,0.00,VWS V14.01,2013-10-16 19:00:00,
2013-10-16 14:04:00,54.4,50.3,29.77,SSW,205,0.0,11.0,86,0.00,,OVC027,0.00,VWS V14.01,2013-10-16 19:04:00,
2013-10-16 14:05:00,54.4,50.3,29.77,SW,228,0.0,11.0,86,0.00,,OVC016,0.00,VWS V14.01,2013-10-16 19:05:00,
2013-10-16 14:09:00,54.5,50.4,29.77,WSW,237,0.0,4.0,86,0.00,,OVC027,0.00,VWS V14.01,2013-10-16 19:09:00,
2013-10-16 14:10:00,54.5,51.3,29.77,WSW,240,5.0,6.0,89,0.00,,OVC016,0.00,VWS V14.01,2013-10-16 19:10:00,
2013-10-16 14:14:00,54.5,50.4,29.77,WSW,242,4.0,6.0,86,0.00,,OVC027,0.00,VWS V14.01,2013-10-16 19:14:00,
2013-10-16 14:15:00,54.5,50.4,29.77,North,360,3.0,7.0,86,0.00,,OVC016,0.00,VWS V14.01,2013-10-16 19:15:00,
2013-10-16 14:19:00,54.4,50.3,29.77,WSW,238,0.0,8.0,86,0.00,,OVC027,0.00,VWS V14.01,2013-10-16 19:19:00,
2013-10-16 14:20:00,54.4,50.3,29.77,WSW,240,2.0,8.0,86,0.00,,OVC016,0.00,VWS V14.01,2013-10-16 19:20:00,
2013-10-16 14:24:00,54.4,50.6,29.77,SW,222,0.0,8.0,87,0.00,,OVC027,0.00,VWS V14.01,2013-10-16 19:24:00,
2013-10-16 14:25:00,54.4,50.6,29.77,WSW,254,0.0,8.0,87,0.00,,OVC016,0.00,VWS V14.01,2013-10-16 19:25:00,
2013-10-16 14:29:00,54.6,50.8,29.77,North,360,0.0,1.0,87,0.00,,OVC027,0.00,VWS V14.01,2013-10-16 19:29:00,
2013-10-16 14:30:00,54.5,50.7,29.77,SSW,198,0.0,0.0,87,0.00,,OVC016,0.00,VWS V14.01,2013-10-16 19:30:00,
2013-10-16 14:34:00,54.5,50.4,29.77,WSW,238,0.0,5.0,86,0.00,,OVC027,0.00,VWS V14.01,2013-10-16 19:34:00,
2013-10-16 14:35:00,54.5,50.4,29.77,SW,234,2.0,5.0,86,0.00,,OVC016,0.00,VWS V14.01,2013-10-16 19:35:00,
2013-10-16 14:39:00,54.6,50.8,29.77,SW,226,0.0,9.0,87,0.00,,OVC027,0.00,VWS V14.01,2013-10-16 19:39:00,
2013-10-16 14:40:00,54.5,50.7,29.77,SW,225,0.0,9.0,87,0.00,,OVC016,0.00,VWS V14.01,2013-10-16 19:40:00,
2013-10-16 14:44:00,54.6,50.8,29.77,SSW,202,4.0,4.0,87,0.00,,OVC027,0.00,VWS V14.01,2013-10-16 19:44:00,
2013-10-16 14:45:00,54.6,50.8,29.77,SSW,202,4.0,4.0,87,0.00,,OVC016,0.00,VWS V14.01,2013-10-16 19:45:00,
2013-10-16 14:49:00,54.5,50.4,29.77,SW,231,3.0,10.0,86,0.00,,OVC027,0.00,VWS V14.01,2013-10-16 19:49:00,
2013-10-16 14:50:00,54.5,50.4,29.77,SW,231,3.0,10.0,86,0.00,,OVC016,0.00,VWS V14.01,2013-10-16 19:50:00,
2013-10-16 14:54:00,54.4,50.6,29.77,SW,218,7.0,8.0,87,0.00,,OVC027,0.00,VWS V14.01,2013-10-16 19:54:00,
2013-10-16 14:55:00,54.4,50.6,29.77,SW,218,7.0,8.0,87,0.00,,OVC016,0.00,VWS V14.01,2013-10-16 19:55:00,
2013-10-16 14:59:00,54.3,50.5,29.77,West,267,2.0,8.0,87,0.00,,OVC027,0.00,VWS V14.01,2013-10-16 19:59:00,
2013-10-16 15:00:00,54.3,50.5,29.77,West,267,2.0,8.0,87,0.00,,OVC016,0.00,VWS V14.01,2013-10-16 20:00:00,
2013-10-16 15:04:00,54.3,50.2,29.77,West,273,3.0,9.0,86,0.00,,OVC031,0.00,VWS V14.01,2013-10-16 20:04:00,
2013-10-16 15:05:00,54.3,50.2,29.77,West,273,3.0,9.0,86,0.00,,OVC016,0.00,VWS V14.01,2013-10-16 20:05:00,
2013-10-16 15:09:00,54.4,50.0,29.77,WSW,256,0.0,12.0,85,0.00,,OVC031,0.00,VWS V14.01,2013-10-16 20:09:00,
2013-10-16 15:10:00,54.4,50.0,29.77,WSW,256,0.0,12.0,85,0.00,,OVC016,0.00,VWS V14.01,2013-10-16 20:10:00,
2013-10-16 15:14:00,54.4,49.7,29.77,West,260,1.0,9.0,84,0.00,,OVC031,0.00,VWS V14.01,2013-10-16 20:14:00,
2013-10-16 15:15:00,54.4,49.7,29.77,West,260,1.0,9.0,84,0.00,,OVC016,0.00,VWS V14.01,2013-10-16 20:15:00,
2013-10-16 15:19:00,54.4,49.7,29.77,West,273,1.0,11.0,84,0.00,,OVC031,0.00,VWS V14.01,2013-10-16 20:19:00,
2013-10-16 15:20:00,54.4,49.7,29.77,West,273,1.0,11.0,84,0.00,,OVC016,0.00,VWS V14.01,2013-10-16 20:20:00,
2013-10-16 15:24:00,54.4,49.7,29.77,West,279,6.0,13.0,84,0.00,,OVC031,0.00,VWS V14.01,2013-10-16 20:24:00,
2013-10-16 15:25:00,54.4,49.7,29.77,West,279,6.0,13.0,84,0.00,,OVC016,0.00,VWS V14.01,2013-10-16 20:25:00,
2013-10-16 15:30:00,54.2,49.2,29.78,West,259,9.0,15.0,83,0.00,,OVC028,0.00,VWS V14.01,2013-10-16 20:30:00,
2013-10-16 15:35:00,54.2,49.5,29.78,WSW,257,6.0,10.0,84,0.00,,OVC028,0.00,VWS V14.01,2013-10-16 20:35:00,
2013-10-16 15:40:00,54.4,49.3,29.78,WSW,257,8.0,12.0,83,0.00,,OVC028,0.00,VWS V14.01,2013-10-16 20:40:00,
2013-10-16 15:45:00,54.5,49.5,29.78,West,263,11.0,11.0,83,0.00,,OVC028,0.00,VWS V14.01,2013-10-16 20:45:00,
2013-10-16 15:50:00,54.6,49.2,29.78,West,273,8.0,15.0,82,0.00,,OVC028,0.00,VWS V14.01,2013-10-16 20:50:00,
2013-10-16 15:55:00,54.6,49.5,29.78,West,279,5.0,9.0,83,0.00,,OVC028,0.00,VWS V14.01,2013-10-16 20:55:00,
2013-10-16 16:00:00,54.6,49.5,29.77,WSW,252,5.0,10.0,83,0.00,,-RA,0.00,VWS V14.01,2013-10-16 21:00:00,
2013-10-16 16:05:00,54.6,49.5,29.77,West,274,0.0,11.0,83,0.00,,-RA,0.00,VWS V14.01,2013-10-16 21:05:00,
2013-10-16 16:10:00,54.6,49.2,29.78,WNW,285,5.0,9.0,82,0.00,,-RA,0.00,VWS V14.01,2013-10-16 21:10:00,
2013-10-16 16:15:00,54.5,49.1,29.78,WNW,294,9.0,11.0,82,0.00,,-RA,0.00,VWS V14.01,2013-10-16 21:15:00,
2013-10-16 16:20:00,54.4,49.3,29.78,WSW,255,7.0,10.0,83,0.00,,OVC016,0.00,VWS V14.01,2013-10-16 21:20:00,
2013-10-16 16:21:00,54.4,49.3,29.78,WNW,292,6.0,10.0,83,0.00,,-RA,0.00,VWS V14.01,2013-10-16 21:21:00,
2013-10-16 16:25:00,54.2,49.2,29.78,West,263,7.0,11.0,83,0.00,,OVC016,0.00,VWS V14.01,2013-10-16 21:25:00,
2013-10-16 16:26:00,54.2,49.2,29.78,West,273,2.0,11.0,83,0.00,,-RA,0.00,VWS V14.01,2013-10-16 21:26:00,
2013-10-16 16:30:00,54.2,49.2,29.78,West,263,10.0,12.0,83,0.00,,OVC016,0.00,VWS V14.01,2013-10-16 21:30:00,
2013-10-16 16:31:00,54.1,49.1,29.78,North,360,8.0,12.0,83,0.00,,,0.00,VWS V14.01,2013-10-16 21:31:00,
2013-10-16 16:35:00,54.0,49.0,29.78,West,264,3.0,8.0,83,0.00,,OVC016,0.00,VWS V14.01,2013-10-16 21:35:00,
2013-10-16 16:36:00,54.0,49.0,29.78,WNW,294,8.0,8.0,83,0.00,,,0.00,VWS V14.01,2013-10-16 21:36:00,
2013-10-16 16:40:00,53.9,49.2,29.78,WSW,254,6.0,12.0,84,0.00,,OVC016,0.00,VWS V14.01,2013-10-16 21:40:00,
2013-10-16 16:41:00,53.9,49.2,29.78,WSW,248,8.0,12.0,84,0.00,,,0.00,VWS V14.01,2013-10-16 21:41:00,
2013-10-16 16:45:00,53.9,49.2,29.78,WNW,286,8.0,8.0,84,0.00,,OVC016,0.00,VWS V14.01,2013-10-16 21:45:00,
2013-10-16 16:46:00,53.9,49.2,29.78,WSW,254,6.0,9.0,84,0.00,,,0.00,VWS V14.01,2013-10-16 21:46:00,
2013-10-16 16:50:00,53.9,49.2,29.78,West,279,5.0,9.0,84,0.00,,OVC016,0.00,VWS V14.01,2013-10-16 21:50:00,
2013-10-16 16:51:00,53.9,49.2,29.78,WSW,238,4.0,9.0,84,0.00,,,0.00,VWS V14.01,2013-10-16 21:51:00,
2013-10-16 16:55:00,53.9,49.2,29.78,West,263,7.0,11.0,84,0.00,,OVC016,0.00,VWS V14.01,2013-10-16 21:55:00,
2013-10-16 16:56:00,53.9,49.2,29.78,West,275,4.0,9.0,84,0.00,,,0.00,VWS V14.01,2013-10-16 21:56:00,
2013-10-16 17:00:00,53.9,49.2,29.79,West,269,6.0,9.0,84,0.00,,OVC016,0.00,VWS V14.01,2013-10-16 22:00:00,
2013-10-16 17:01:00,53.9,49.2,29.78,West,278,5.0,9.0,84,0.00,,OVC033,0.00,VWS V14.01,2013-10-16 22:01:00,
2013-10-16 17:05:00,53.9,49.2,29.79,West,263,4.0,8.0,84,0.00,,OVC016,0.00,VWS V14.01,2013-10-16 22:05:00,
2013-10-16 17:06:00,53.9,49.2,29.79,West,273,3.0,9.0,84,0.00,,OVC033,0.00,VWS V14.01,2013-10-16 22:06:00,
2013-10-16 17:10:00,53.9,49.5,29.79,WNW,298,0.0,9.0,85,0.00,,OVC016,0.00,VWS V14.01,2013-10-16 22:10:00,
2013-10-16 17:11:00,53.9,49.2,29.79,West,269,5.0,7.0,84,0.00,,OVC033,0.00,VWS V14.01,2013-10-16 22:11:00,
2013-10-16 17:15:00,53.8,49.1,29.79,NW,311,7.0,9.0,84,0.00,,OVC016,0.00,VWS V14.01,2013-10-16 22:15:00,
2013-10-16 17:16:00,53.7,49.0,29.79,West,279,6.0,10.0,84,0.00,,OVC033,0.00,VWS V14.01,2013-10-16 22:16:00,
2013-10-16 17:20:00,53.6,49.2,29.79,WNW,284,5.0,10.0,85,0.00,,OVC016,0.00,VWS V14.01,2013-10-16 22:20:00,
2013-10-16 17:21:00,53.6,49.2,29.79,WNW,298,6.0,8.0,85,0.00,,OVC033,0.00,VWS V14.01,2013-10-16 22:21:00,
2013-10-16 17:25:00,53.5,49.1,29.79,WNW,300,5.0,9.0,85,0.00,,OVC016,0.00,VWS V14.01,2013-10-16 22:25:00,
2013-10-16 17:26:00,53.5,49.1,29.79,WSW,252,1.0,8.0,85,0.00,,OVC033,0.00,VWS V14.01,2013-10-16 22:26:00,
2013-10-16 17:30:00,53.5,49.4,29.79,WSW,252,5.0,5.0,86,0.00,,OVC016,0.00,VWS V14.01,2013-10-16 22:30:00,
2013-10-16 17:31:00,53.4,49.3,29.79,WSW,254,5.0,7.0,86,0.00,,-RA,0.00,VWS V14.01,2013-10-16 22:31:00,
2013-10-16 17:35:00,53.2,49.4,29.79,WSW,254,0.0,7.0,87,0.00,,OVC016,0.00,VWS V14.01,2013-10-16 22:35:00,
2013-10-16 17:36:00,53.1,49.3,29.80,West,272,0.0,7.0,87,0.00,,-RA,0.00,VWS V14.01,2013-10-16 22:36:00,
2013-10-16 17:40:00,53.0,49.5,29.80,West,264,0.0,7.0,88,0.00,,OVC016,0.00,VWS V14.01,2013-10-16 22:40:00,
2013-10-16 17:42:00,52.9,49.5,29.80,West,280,3.0,5.0,88,0.00,,-RA,0.00,VWS V14.01,2013-10-16 22:42:00,
2013-10-16 17:45:00,52.7,49.6,29.80,West,271,5.0,9.0,89,0.00,,OVC016,0.00,VWS V14.01,2013-10-16 22:45:00,
2013-10-16 17:47:00,52.6,49.5,29.80,WSW,254,5.0,7.0,89,0.00,,-RA,0.00,VWS V14.01,2013-10-16 22:47:00,
2013-10-16 17:50:00,52.4,49.6,29.80,West,263,4.0,7.0,90,0.00,,OVC016,0.00,VWS V14.01,2013-10-16 22:50:00,
2013-10-16 17:52:00,52.3,49.5,29.80,West,271,6.0,7.0,90,0.00,,-RA,0.00,VWS V14.01,2013-10-16 22:52:00,
2013-10-16 17:55:00,52.2,49.7,29.80,SW,229,5.0,6.0,91,0.00,,OVC016,0.00,VWS V14.01,2013-10-16 22:55:00,
2013-10-16 17:57:00,52.1,49.6,29.80,West,266,6.0,6.0,91,0.00,,-RA,0.00,VWS V14.01,2013-10-16 22:57:00,
2013-10-16 18:00:00,51.9,49.4,29.80,West,274,3.0,6.0,91,0.00,,OVC016,0.00,VWS V14.01,2013-10-16 23:00:00,
2013-10-16 18:02:00,51.8,49.5,29.80,West,272,5.0,9.0,92,0.00,,BKN020,0.00,VWS V14.01,2013-10-16 23:02:00,
2013-10-16 18:05:00,51.6,49.4,29.80,West,261,1.0,9.0,92,0.00,,OVC016,0.00,VWS V14.01,2013-10-16 23:05:00,
2013-10-16 18:07:00,51.5,49.5,29.80,West,263,0.0,7.0,93,0.00,,BKN020,0.00,VWS V14.01,2013-10-16 23:07:00,
2013-10-16 18:10:00,51.4,49.5,29.80,WNW,283,0.0,8.0,93,0.00,,OVC016,0.00,VWS V14.01,2013-10-16 23:10:00,
2013-10-16 18:12:00,51.3,49.3,29.80,West,268,3.0,8.0,93,0.00,,BKN020,0.00,VWS V14.01,2013-10-16 23:12:00,
2013-10-16 18:15:00,51.3,49.3,29.81,West,271,0.0,7.0,93,0.00,,OVC016,0.00,VWS V14.01,2013-10-16 23:15:00,
2013-10-16 18:17:00,51.2,49.5,29.80,West,270,7.0,7.0,94,0.00,,BKN020,0.00,VWS V14.01,2013-10-16 23:17:00,
2013-10-16 18:20:00,51.1,49.4,29.81,West,266,3.0,7.0,94,0.00,,OVC016,0.00,VWS V14.01,2013-10-16 23:20:00,
2013-10-16 18:22:00,51.1,49.4,29.81,West,269,6.0,7.0,94,0.00,,BKN020,0.00,VWS V14.01,2013-10-16 23:22:00,
2013-10-16 18:25:00,51.0,49.3,29.81,WSW,248,5.0,7.0,94,0.00,,OVC016,0.00,VWS V14.01,2013-10-16 23:25:00,
2013-10-16 18:27:00,51.0,49.3,29.81,WSW,258,7.0,9.0,94,0.01,,BKN020,0.01,VWS V14.01,2013-10-16 23:27:00,
2013-10-16 18:30:00,50.9,49.2,29.81,West,262,0.0,9.0,94,0.01,,OVC016,0.01,VWS V14.01,2013-10-16 23:30:00,
2013-10-16 18:32:00,50.8,49.1,29.81,West,271,7.0,9.0,94,0.01,,BKN020,0.01,VWS V14.01,2013-10-16 23:32:00,
2013-10-16 18:35:00,50.8,49.1,29.81,WSW,245,1.0,9.0,94,0.01,,OVC016,0.01,VWS V14.01,2013-10-16 23:35:00,
2013-10-16 18:37:00,50.7,49.3,29.81,West,261,7.0,8.0,95,0.01,,BKN020,0.01,VWS V14.01,2013-10-16 23:37:00,
2013-10-16 18:40:00,50.7,49.3,29.81,West,263,6.0,8.0,95,0.01,,OVC016,0.01,VWS V14.01,2013-10-16 23:40:00,
2013-10-16 18:42:00,50.6,49.2,29.81,West,259,5.0,8.0,95,0.01,,BKN020,0.01,VWS V14.01,2013-10-16 23:42:00,
2013-10-16 18:45:00,50.6,49.2,29.82,West,263,6.0,8.0,95,0.01,,OVC016,0.01,VWS V14.01,2013-10-16 23:45:00,
2013-10-16 18:47:00,50.6,49.2,29.82,WSW,254,5.0,7.0,95,0.01,,BKN020,0.01,VWS V14.01,2013-10-16 23:47:00,
2013-10-16 18:50:00,50.6,49.2,29.82,West,276,5.0,7.0,95,0.01,,OVC016,0.01,VWS V14.01,2013-10-16 23:50:00,
2013-10-16 18:52:00,50.6,49.2,29.82,West,259,0.0,5.0,95,0.01,,BKN020,0.01,VWS V14.01,2013-10-16 23:52:00,
2013-10-16 18:55:00,50.6,49.2,29.82,West,273,0.0,0.0,95,0.01,,OVC016,0.01,VWS V14.01,2013-10-16 23:55:00,
2013-10-16 18:57:00,50.6,49.2,29.82,WSW,253,0.0,0.0,95,0.01,,BKN020,0.01,VWS V14.01,2013-10-16 23:57:00,
2013-10-16 19:00:00,50.6,49.2,29.82,West,259,0.0,0.0,95,0.01,,OVC016,0.01,VWS V14.01,2013-10-17 00:00:00,
2013-10-16 19:03:00,50.6,49.2,29.82,West,261,0.0,0.0,95,0.01,,OVC018,0.01,VWS V14.01,2013-10-17 00:03:00,
2013-10-16 19:05:00,50.6,49.2,29.82,West,263,0.0,0.0,95,0.01,,OVC016,0.01,VWS V14.01,2013-10-17 00:05:00,
2013-10-16 19:08:00,50.6,49.2,29.82,West,266,0.0,0.0,95,0.01,,OVC018,0.01,VWS V14.01,2013-10-17 00:08:00,
2013-10-16 19:10:00,50.6,49.2,29.82,West,263,0.0,0.0,95,0.01,,OVC016,0.01,VWS V14.01,2013-10-17 00:10:00,
2013-10-16 19:13:00,50.7,49.6,29.83,West,264,0.0,0.0,96,0.01,,OVC018,0.01,VWS V14.01,2013-10-17 00:13:00,
2013-10-16 19:15:00,50.6,49.5,29.82,WNW,300,0.0,0.0,96,0.01,,OVC016,0.01,VWS V14.01,2013-10-17 00:15:00,
2013-10-16 19:18:00,50.5,49.1,29.82,NW,311,0.0,9.0,95,0.01,,OVC018,0.01,VWS V14.01,2013-10-17 00:18:00,
2013-10-16 19:20:00,50.5,49.1,29.83,WNW,292,4.0,9.0,95,0.01,,OVC016,0.01,VWS V14.01,2013-10-17 00:20:00,
2013-10-16 19:23:00,50.2,48.8,29.83,North,360,7.0,8.0,95,0.02,,OVC018,0.02,VWS V14.01,2013-10-17 00:23:00,
2013-10-16 19:25:00,50.1,48.7,29.83,NW,313,7.0,9.0,95,0.02,,OVC016,0.02,VWS V14.01,2013-10-17 00:25:00,
2013-10-16 19:28:00,50.0,48.6,29.83,WNW,298,1.0,9.0,95,0.02,,OVC018,0.02,VWS V14.01,2013-10-17 00:28:00,
2013-10-16 19:30:00,49.9,48.5,29.83,West,272,6.0,9.0,95,0.02,,OVC016,0.02,VWS V14.01,2013-10-17 00:30:00,
2013-10-16 19:33:00,49.9,48.5,29.83,WNW,299,5.0,9.0,95,0.01,,OVC018,0.02,VWS V14.01,2013-10-17 00:33:00,
2013-10-16 19:35:00,49.8,48.4,29.83,NW,306,7.0,9.0,95,0.01,,OVC016,0.02,VWS V14.01,2013-10-17 00:35:00,
2013-10-16 19:38:00,49.8,48.4,29.83,West,279,1.0,8.0,95,0.01,,OVC018,0.02,VWS V14.01,2013-10-17 00:38:00,
2013-10-16 19:40:00,49.8,48.4,29.83,West,277,3.0,7.0,95,0.01,,OVC016,0.02,VWS V14.01,2013-10-17 00:40:00,
2013-10-16 19:43:00,49.8,48.4,29.83,NW,304,4.0,6.0,95,0.01,,OVC018,0.02,VWS V14.01,2013-10-17 00:43:00,
2013-10-16 19:45:00,49.8,48.4,29.83,NW,306,5.0,5.0,95,0.01,,OVC016,0.02,VWS V14.01,2013-10-17 00:45:00,
2013-10-16 19:48:00,49.9,48.5,29.83,WNW,297,0.0,6.0,95,0.01,,OVC018,0.02,VWS V14.01,2013-10-17 00:48:00,
2013-10-16 19:50:00,49.9,48.5,29.83,WNW,285,0.0,5.0,95,0.01,,OVC016,0.02,VWS V14.01,2013-10-17 00:50:00,
2013-10-16 19:53:00,49.9,48.5,29.83,West,266,0.0,0.0,95,0.01,,OVC018,0.02,VWS V14.01,2013-10-17 00:53:00,
2013-10-16 19:55:00,49.9,48.5,29.83,WNW,288,0.0,1.0,95,0.01,,OVC016,0.02,VWS V14.01,2013-10-17 00:55:00,
2013-10-16 19:58:00,49.9,48.5,29.83,WNW,287,0.0,0.0,95,0.01,,OVC018,0.02,VWS V14.01,2013-10-17 00:58:00,
2013-10-16 20:00:00,49.9,48.5,29.83,WNW,288,0.0,0.0,95,0.01,,OVC016,0.02,VWS V14.01,2013-10-17 01:00:00,
2013-10-16 20:03:00,50.0,48.6,29.83,West,267,0.0,0.0,95,0.01,,OVC016,0.02,VWS V14.01,2013-10-17 01:03:00,
2013-10-16 20:05:00,49.9,48.5,29.83,West,267,0.0,0.0,95,0.01,,OVC016,0.02,VWS V14.01,2013-10-17 01:05:00,
2013-10-16 20:08:00,50.0,48.6,29.83,West,265,0.0,0.0,95,0.01,,OVC016,0.02,VWS V14.01,2013-10-17 01:08:00,
2013-10-16 20:10:00,50.0,48.6,29.83,West,267,0.0,0.0,95,0.01,,OVC016,0.02,VWS V14.01,2013-10-17 01:10:00,
2013-10-16 20:14:00,50.0,48.6,29.83,West,262,0.0,0.0,95,0.01,,OVC016,0.02,VWS V14.01,2013-10-17 01:14:00,
2013-10-16 20:15:00,50.0,48.9,29.83,West,261,0.0,0.0,96,0.01,,OVC016,0.02,VWS V14.01,2013-10-17 01:15:00,
2013-10-16 20:19:00,50.1,48.7,29.83,West,264,0.0,0.0,95,0.01,,OVC016,0.02,VWS V14.01,2013-10-17 01:19:00,
2013-10-16 20:20:00,50.1,48.7,29.83,West,265,0.0,0.0,95,0.01,,OVC016,0.02,VWS V14.01,2013-10-17 01:20:00,
2013-10-16 20:24:00,50.2,49.1,29.84,West,265,0.0,0.0,96,0.01,,OVC016,0.02,VWS V14.01,2013-10-17 01:24:00,
2013-10-16 20:25:00,50.2,49.1,29.84,West,265,0.0,0.0,96,0.01,,OVC016,0.02,VWS V14.01,2013-10-17 01:25:00,
2013-10-16 20:29:00,50.2,48.8,29.84,West,265,0.0,0.0,95,0.00,,OVC016,0.02,VWS V14.01,2013-10-17 01:29:00,
2013-10-16 20:30:00,50.2,49.1,29.84,West,265,0.0,0.0,96,0.00,,OVC016,0.02,VWS V14.01,2013-10-17 01:30:00,
2013-10-16 20:34:00,50.1,48.7,29.84,West,269,0.0,0.0,95,0.00,,OVC016,0.02,VWS V14.01,2013-10-17 01:34:00,
2013-10-16 20:35:00,50.1,48.7,29.84,West,269,0.0,0.0,95,0.00,,OVC016,0.02,VWS V14.01,2013-10-17 01:35:00,
2013-10-16 20:39:00,50.1,48.7,29.84,West,269,0.0,0.0,95,0.00,,OVC016,0.02,VWS V14.01,2013-10-17 01:39:00,
2013-10-16 20:40:00,50.1,48.7,29.84,West,269,0.0,0.0,95,0.00,,OVC016,0.02,VWS V14.01,2013-10-17 01:40:00,
2013-10-16 20:44:00,50.0,48.6,29.84,West,263,0.0,0.0,95,0.00,,OVC016,0.02,VWS V14.01,2013-10-17 01:44:00,
2013-10-16 20:45:00,50.0,48.6,29.84,West,263,0.0,0.0,95,0.00,,OVC016,0.02,VWS V14.01,2013-10-17 01:45:00,
2013-10-16 20:49:00,50.0,48.6,29.84,West,263,0.0,0.0,95,0.00,,OVC016,0.02,VWS V14.01,2013-10-17 01:49:00,
2013-10-16 20:50:00,50.0,48.6,29.84,West,263,0.0,0.0,95,0.00,,OVC016,0.02,VWS V14.01,2013-10-17 01:50:00,
2013-10-16 20:54:00,50.0,48.6,29.84,West,278,0.0,0.0,95,0.00,,OVC016,0.02,VWS V14.01,2013-10-17 01:54:00,
2013-10-16 20:55:00,50.0,48.6,29.84,West,278,0.0,0.0,95,0.00,,OVC016,0.02,VWS V14.01,2013-10-17 01:55:00,
2013-10-16 20:59:00,50.0,48.6,29.85,West,261,0.0,0.0,95,0.00,,OVC016,0.02,VWS V14.01,2013-10-17 01:59:00,
2013-10-16 21:00:00,50.0,48.6,29.85,West,261,0.0,0.0,95,0.00,,OVC016,0.02,VWS V14.01,2013-10-17 02:00:00,
2013-10-16 21:04:00,50.0,48.6,29.85,West,265,0.0,0.0,95,0.00,,OVC019,0.02,VWS V14.01,2013-10-17 02:04:00,
2013-10-16 21:05:00,50.0,48.6,29.85,West,265,0.0,0.0,95,0.00,,OVC016,0.02,VWS V14.01,2013-10-17 02:05:00,
2013-10-16 21:09:00,49.9,48.5,29.85,West,273,0.0,0.0,95,0.00,,OVC019,0.02,VWS V14.01,2013-10-17 02:09:00,
2013-10-16 21:10:00,49.9,48.5,29.85,West,279,0.0,0.0,95,0.00,,OVC016,0.02,VWS V14.01,2013-10-17 02:10:00,
2013-10-16 21:14:00,49.9,48.2,29.85,West,265,0.0,0.0,94,0.00,,OVC019,0.02,VWS V14.01,2013-10-17 02:14:00,
2013-10-16 21:15:00,49.9,48.2,29.85,West,265,0.0,0.0,94,0.00,,OVC016,0.02,VWS V14.01,2013-10-17 02:15:00,
2013-10-16 21:19:00,49.9,48.5,29.85,West,276,0.0,0.0,95,0.00,,OVC019,0.02,VWS V14.01,2013-10-17 02:19:00,
2013-10-16 21:20:00,49.9,48.5,29.85,West,276,0.0,0.0,95,0.00,,OVC016,0.02,VWS V14.01,2013-10-17 02:20:00,
2013-10-16 21:24:00,49.9,48.2,29.85,West,272,0.0,0.0,94,0.00,,OVC019,0.02,VWS V14.01,2013-10-17 02:24:00,
2013-10-16 21:25:00,49.9,48.2,29.85,West,272,0.0,0.0,94,0.00,,OVC016,0.02,VWS V14.01,2013-10-17 02:25:00,
2013-10-16 21:29:00,49.9,48.2,29.85,West,261,0.0,0.0,94,0.00,,OVC019,0.02,VWS V14.01,2013-10-17 02:29:00,
2013-10-16 21:30:00,49.9,48.2,29.85,West,261,0.0,0.0,94,0.00,,OVC016,0.02,VWS V14.01,2013-10-17 02:30:00,
2013-10-16 21:35:00,49.8,48.2,29.85,West,271,0.0,0.0,94,0.00,,OVC021,0.02,VWS V14.01,2013-10-17 02:35:00,
2013-10-16 21:40:00,49.8,48.2,29.85,West,260,0.0,0.0,94,0.00,,OVC021,0.02,VWS V14.01,2013-10-17 02:40:00,
2013-10-16 21:45:00,49.7,48.0,29.84,West,260,0.0,0.0,94,0.00,,OVC021,0.02,VWS V14.01,2013-10-17 02:45:00,
2013-10-16 21:50:00,49.7,48.0,29.85,West,269,0.0,0.0,94,0.00,,OVC021,0.02,VWS V14.01,2013-10-17 02:50:00,
2013-10-16 21:55:00,49.7,48.0,29.85,West,262,0.0,0.0,94,0.00,,OVC021,0.02,VWS V14.01,2013-10-17 02:55:00,
2013-10-16 22:00:00,49.6,48.2,29.85,West,265,0.0,0.0,95,0.00,,-RA,0.02,VWS V14.01,2013-10-17 03:00:00,
2013-10-16 22:05:00,49.6,48.2,29.85,WSW,254,0.0,0.0,95,0.00,,-RA,0.02,VWS V14.01,2013-10-17 03:05:00,
2013-10-16 22:10:00,49.6,48.2,29.85,West,279,0.0,0.0,95,0.00,,-RA,0.02,VWS V14.01,2013-10-17 03:10:00,
2013-10-16 22:15:00,49.6,48.2,29.85,WSW,247,0.0,0.0,95,0.00,,-RA,0.02,VWS V14.01,2013-10-17 03:15:00,
2013-10-16 22:20:00,49.6,48.2,29.85,West,260,0.0,0.0,95,0.00,,-RA,0.02,VWS V14.01,2013-10-17 03:20:00,
2013-10-16 22:25:00,49.7,48.3,29.85,WSW,256,0.0,0.0,95,0.00,,-RA,0.02,VWS V14.01,2013-10-17 03:25:00,
2013-10-16 22:30:00,49.7,48.3,29.85,WSW,253,0.0,0.0,95,0.00,,OVC032,0.02,VWS V14.01,2013-10-17 03:30:00,
2013-10-16 22:35:00,49.7,48.3,29.85,West,263,0.0,0.0,95,0.00,,OVC032,0.02,VWS V14.01,2013-10-17 03:35:00,
2013-10-16 22:40:00,49.6,48.2,29.84,WSW,258,0.0,0.0,95,0.00,,OVC016,0.02,VWS V14.01,2013-10-17 03:40:00,
2013-10-16 22:41:00,49.6,48.2,29.85,WSW,257,0.0,0.0,95,0.00,,OVC032,0.02,VWS V14.01,2013-10-17 03:41:00,
2013-10-16 22:45:00,49.6,48.2,29.85,WSW,254,0.0,0.0,95,0.00,,OVC016,0.02,VWS V14.01,2013-10-17 03:45:00,
2013-10-16 22:46:00,49.6,48.2,29.85,WSW,254,0.0,0.0,95,0.00,,OVC032,0.02,VWS V14.01,2013-10-17 03:46:00,
2013-10-16 22:50:00,49.6,48.2,29.85,WSW,238,0.0,0.0,95,0.00,,OVC016,0.02,VWS V14.01,2013-10-17 03:50:00,
2013-10-16 22:51:00,49.6,48.2,29.85,WSW,258,0.0,0.0,95,0.00,,OVC032,0.02,VWS V14.01,2013-10-17 03:51:00,
2013-10-16 22:55:00,49.6,48.2,29.85,WSW,254,0.0,0.0,95,0.00,,OVC016,0.02,VWS V14.01,2013-10-17 03:55:00,
2013-10-16 22:56:00,49.6,48.2,29.85,West,259,0.0,0.0,95,0.00,,OVC032,0.02,VWS V14.01,2013-10-17 03:56:00,
2013-10-16 23:00:00,49.5,48.1,29.85,WSW,254,0.0,0.0,95,0.00,,OVC016,0.02,VWS V14.01,2013-10-17 04:00:00,
2013-10-16 23:01:00,49.5,48.1,29.85,West,261,0.0,0.0,95,0.00,,OVC023,0.02,VWS V14.01,2013-10-17 04:01:00,
2013-10-16 23:02:00,49.6,48.2,29.85,West,261,0.0,0.0,95,0.00,,OVC023,0.02,VWS V14.01,2013-10-17 04:02:00,
2013-10-16 23:03:00,49.6,48.2,29.85,West,271,0.0,0.0,95,0.00,,OVC023,0.02,VWS V14.01,2013-10-17 04:03:00,
2013-10-16 23:05:00,49.5,48.1,29.85,WSW,251,0.0,0.0,95,0.00,,OVC023,0.02,VWS V14.01,2013-10-17 04:05:00,
2013-10-16 23:06:00,49.5,48.1,29.85,WSW,244,0.0,0.0,95,0.00,,OVC023,0.02,VWS V14.01,2013-10-17 04:06:00,
2013-10-16 23:10:00,49.5,48.1,29.85,West,269,0.0,0.0,95,0.00,,OVC016,0.02,VWS V14.01,2013-10-17 04:10:00,
2013-10-16 23:11:00,49.4,48.0,29.85,West,264,0.0,0.0,95,0.00,,OVC023,0.02,VWS V14.01,2013-10-17 04:11:00,
2013-10-16 23:15:00,49.4,48.0,29.85,West,262,0.0,0.0,95,0.00,,OVC016,0.02,VWS V14.01,2013-10-17 04:15:00,
2013-10-16 23:16:00,49.4,48.0,29.85,West,268,0.0,0.0,95,0.00,,OVC023,0.02,VWS V14.01,2013-10-17 04:16:00,
2013-10-16 23:20:00,49.4,48.0,29.85,West,265,0.0,0.0,95,0.00,,OVC016,0.02,VWS V14.01,2013-10-17 04:20:00,
2013-10-16 23:21:00,49.4,48.0,29.85,West,261,0.0,0.0,95,0.00,,OVC023,0.02,VWS V14.01,2013-10-17 04:21:00,
2013-10-16 23:25:00,49.4,48.0,29.85,West,262,0.0,0.0,95,0.00,,OVC016,0.02,VWS V14.01,2013-10-17 04:25:00,
2013-10-16 23:26:00,49.5,48.1,29.85,West,265,0.0,0.0,95,0.00,,OVC023,0.02,VWS V14.01,2013-10-17 04:26:00,
2013-10-16 23:30:00,49.5,48.1,29.85,West,276,0.0,0.0,95,0.00,,OVC016,0.02,VWS V14.01,2013-10-17 04:30:00,
2013-10-16 23:31:00,49.4,47.8,29.85,West,261,0.0,0.0,94,0.00,,OVC023,0.02,VWS V14.01,2013-10-17 04:31:00,
2013-10-16 23:35:00,49.4,47.8,29.85,West,267,0.0,0.0,94,0.00,,OVC016,0.02,VWS V14.01,2013-10-17 04:35:00,
2013-10-16 23:36:00,49.4,47.8,29.85,West,277,0.0,0.0,94,0.00,,OVC023,0.02,VWS V14.01,2013-10-17 04:36:00,
2013-10-16 23:40:00,49.4,47.8,29.85,West,266,0.0,0.0,94,0.00,,OVC016,0.02,VWS V14.01,2013-10-17 04:40:00,
2013-10-16 23:41:00,49.3,47.7,29.84,WNW,291,0.0,0.0,94,0.00,,OVC023,0.02,VWS V14.01,2013-10-17 04:41:00,
2013-10-16 23:45:00,49.3,47.7,29.84,WNW,290,0.0,0.0,94,0.00,,OVC016,0.02,VWS V14.01,2013-10-17 04:45:00,
2013-10-16 23:46:00,49.3,47.7,29.84,West,262,0.0,0.0,94,0.00,,OVC023,0.02,VWS V14.01,2013-10-17 04:46:00,
2013-10-16 23:50:00,49.2,47.3,29.84,West,278,0.0,0.0,93,0.00,,OVC016,0.02,VWS V14.01,2013-10-17 04:50:00,
2013-10-16 23:51:00,49.2,47.3,29.84,West,278,0.0,0.0,93,0.00,,OVC023,0.02,VWS V14.01,2013-10-17 04:51:00,
2013-10-16 23:55:00,49.2,47.3,29.84,West,279,0.0,0.0,93,0.00,,OVC016,0.02,VWS V14.01,2013-10-17 04:55:00,
2013-10-16 23:57:00,49.1,47.2,29.84,West,279,0.0,0.0,93,0.00,,OVC023,0.02,VWS V14.01,2013-10-17 04:57:00,